sensor_id;sensor_type;location;lat;lon;timestamp;temperature;humidity
42907;DHT22;28552;51.146;6.576;2023-04-03T00:00:54;0.90;99.90
42907;DHT22;28552;51.146;6.576;2023-04-03T00:03:54;0.90;99.90
42907;DHT22;28552;51.146;6.576;2023-04-03T00:06:55;0.90;99.90
42907;DHT22;28552;51.146;6.576;2023-04-03T00:09:56;0.90;99.90
42907;DHT22;28552;51.146;6.576;2023-04-03T00:12:56;0.90;99.90
42907;DHT22;28552;51.146;6.576;2023-04-03T00:15:57;0.80;99.90
42907;DHT22;28552;51.146;6.576;2023-04-03T00:18:57;0.70;99.90
42907;DHT22;28552;51.146;6.576;2023-04-03T00:21:57;0.70;99.90
42907;DHT22;28552;51.146;6.576;2023-04-03T00:24:58;0.70;99.90
42907;DHT22;28552;51.146;6.576;2023-04-03T00:27:58;0.60;99.90
42907;DHT22;28552;51.146;6.576;2023-04-03T00:30:59;0.70;99.90
42907;DHT22;28552;51.146;6.576;2023-04-03T00:34:00;0.70;99.90
42907;DHT22;28552;51.146;6.576;2023-04-03T00:37:00;0.70;99.90
42907;DHT22;28552;51.146;6.576;2023-04-03T00:40:01;0.70;99.90
42907;DHT22;28552;51.146;6.576;2023-04-03T00:43:05;0.60;99.90
42907;DHT22;28552;51.146;6.576;2023-04-03T00:46:09;0.60;99.90
42907;DHT22;28552;51.146;6.576;2023-04-03T00:49:09;0.60;99.90
42907;DHT22;28552;51.146;6.576;2023-04-03T00:52:11;0.60;99.90
42907;DHT22;28552;51.146;6.576;2023-04-03T00:55:15;0.60;99.90
42907;DHT22;28552;51.146;6.576;2023-04-03T00:58:17;0.60;99.90
42907;DHT22;28552;51.146;6.576;2023-04-03T01:01:21;0.60;99.90
42907;DHT22;28552;51.146;6.576;2023-04-03T01:04:27;0.60;99.90
42907;DHT22;28552;51.146;6.576;2023-04-03T01:07:30;0.60;99.90
42907;DHT22;28552;51.146;6.576;2023-04-03T01:10:31;0.60;99.90
42907;DHT22;28552;51.146;6.576;2023-04-03T01:13:32;0.60;99.90
42907;DHT22;28552;51.146;6.576;2023-04-03T01:16:33;0.60;99.90
42907;DHT22;28552;51.146;6.576;2023-04-03T01:19:33;0.50;99.90
42907;DHT22;28552;51.146;6.576;2023-04-03T01:22:40;0.50;99.90
42907;DHT22;28552;51.146;6.576;2023-04-03T01:28:43;0.40;99.90
42907;DHT22;28552;51.146;6.576;2023-04-03T01:31:48;0.30;99.90
42907;DHT22;28552;51.146;6.576;2023-04-03T01:34:49;0.30;99.90
42907;DHT22;28552;51.146;6.576;2023-04-03T01:37:49;0.20;99.90
42907;DHT22;28552;51.146;6.576;2023-04-03T01:40:50;0.20;99.90
42907;DHT22;28552;51.146;6.576;2023-04-03T01:43:50;0.20;99.90
42907;DHT22;28552;51.146;6.576;2023-04-03T01:46:51;0.20;99.90
42907;DHT22;28552;51.146;6.576;2023-04-03T01:49:51;0.20;99.90
42907;DHT22;28552;51.146;6.576;2023-04-03T01:52:52;0.20;99.90
42907;DHT22;28552;51.146;6.576;2023-04-03T01:55:52;0.10;99.90
42907;DHT22;28552;51.146;6.576;2023-04-03T01:58:53;0.20;99.90
42907;DHT22;28552;51.146;6.576;2023-04-03T02:01:53;0.20;99.90
42907;DHT22;28552;51.146;6.576;2023-04-03T02:04:54;0.20;99.90
42907;DHT22;28552;51.146;6.576;2023-04-03T02:07:55;0.20;99.90
42907;DHT22;28552;51.146;6.576;2023-04-03T02:10:55;0.30;99.90
42907;DHT22;28552;51.146;6.576;2023-04-03T02:13:56;0.30;99.90
42907;DHT22;28552;51.146;6.576;2023-04-03T02:16:56;0.40;99.90
42907;DHT22;28552;51.146;6.576;2023-04-03T02:19:57;0.40;99.90
42907;DHT22;28552;51.146;6.576;2023-04-03T02:22:58;0.50;99.90
42907;DHT22;28552;51.146;6.576;2023-04-03T02:26:03;0.50;99.90
42907;DHT22;28552;51.146;6.576;2023-04-03T02:29:03;0.60;99.90
42907;DHT22;28552;51.146;6.576;2023-04-03T02:32:04;0.60;99.90
42907;DHT22;28552;51.146;6.576;2023-04-03T02:35:05;0.60;99.90
42907;DHT22;28552;51.146;6.576;2023-04-03T02:38:06;0.60;99.90
42907;DHT22;28552;51.146;6.576;2023-04-03T02:41:07;0.60;99.90
42907;DHT22;28552;51.146;6.576;2023-04-03T02:44:08;0.60;99.90
42907;DHT22;28552;51.146;6.576;2023-04-03T02:47:09;0.60;99.90
42907;DHT22;28552;51.146;6.576;2023-04-03T02:50:10;0.60;99.90
42907;DHT22;28552;51.146;6.576;2023-04-03T02:53:10;0.50;99.90
42907;DHT22;28552;51.146;6.576;2023-04-03T02:56:10;0.50;99.90
42907;DHT22;28552;51.146;6.576;2023-04-03T02:59:11;0.50;99.90
42907;DHT22;28552;51.146;6.576;2023-04-03T03:02:11;0.50;99.90
42907;DHT22;28552;51.146;6.576;2023-04-03T03:05:12;0.50;99.90
42907;DHT22;28552;51.146;6.576;2023-04-03T03:08:12;0.50;99.90
42907;DHT22;28552;51.146;6.576;2023-04-03T03:11:13;0.50;99.90
42907;DHT22;28552;51.146;6.576;2023-04-03T03:14:13;0.50;99.90
42907;DHT22;28552;51.146;6.576;2023-04-03T03:17:13;0.50;99.90
42907;DHT22;28552;51.146;6.576;2023-04-03T03:20:14;0.40;99.90
42907;DHT22;28552;51.146;6.576;2023-04-03T03:23:15;0.40;99.90
42907;DHT22;28552;51.146;6.576;2023-04-03T03:26:15;0.40;99.90
42907;DHT22;28552;51.146;6.576;2023-04-03T03:29:16;0.30;99.90
42907;DHT22;28552;51.146;6.576;2023-04-03T03:32:16;0.30;99.90
42907;DHT22;28552;51.146;6.576;2023-04-03T03:35:17;0.20;99.90
42907;DHT22;28552;51.146;6.576;2023-04-03T03:38:17;0.30;99.90
42907;DHT22;28552;51.146;6.576;2023-04-03T03:41:18;0.20;99.90
42907;DHT22;28552;51.146;6.576;2023-04-03T03:44:18;0.20;99.90
42907;DHT22;28552;51.146;6.576;2023-04-03T03:47:19;0.10;99.90
42907;DHT22;28552;51.146;6.576;2023-04-03T03:50:20;0.00;99.90
42907;DHT22;28552;51.146;6.576;2023-04-03T03:53:20;0.00;99.90
42907;DHT22;28552;51.146;6.576;2023-04-03T03:56:21;0.00;99.90
42907;DHT22;28552;51.146;6.576;2023-04-03T03:59:22;-0.10;99.90
42907;DHT22;28552;51.146;6.576;2023-04-03T04:02:22;-0.10;99.90
42907;DHT22;28552;51.146;6.576;2023-04-03T04:05:22;-0.20;99.90
42907;DHT22;28552;51.146;6.576;2023-04-03T04:08:23;-0.30;99.90
42907;DHT22;28552;51.146;6.576;2023-04-03T04:11:23;-0.30;99.90
42907;DHT22;28552;51.146;6.576;2023-04-03T04:14:25;-0.20;99.90
42907;DHT22;28552;51.146;6.576;2023-04-03T04:17:25;-0.30;99.90
42907;DHT22;28552;51.146;6.576;2023-04-03T04:20:26;-0.30;99.90
42907;DHT22;28552;51.146;6.576;2023-04-03T04:23:26;-0.30;99.90
42907;DHT22;28552;51.146;6.576;2023-04-03T04:26:26;-0.40;99.90
42907;DHT22;28552;51.146;6.576;2023-04-03T04:29:27;-0.40;99.90
42907;DHT22;28552;51.146;6.576;2023-04-03T04:32:27;-0.40;99.90
42907;DHT22;28552;51.146;6.576;2023-04-03T04:35:28;-0.40;99.90
42907;DHT22;28552;51.146;6.576;2023-04-03T04:38:29;-0.40;99.90
42907;DHT22;28552;51.146;6.576;2023-04-03T04:41:29;-0.40;99.90
42907;DHT22;28552;51.146;6.576;2023-04-03T04:44:30;-0.40;99.90
42907;DHT22;28552;51.146;6.576;2023-04-03T04:47:30;-0.40;99.90
42907;DHT22;28552;51.146;6.576;2023-04-03T04:50:31;-0.40;99.90
42907;DHT22;28552;51.146;6.576;2023-04-03T04:53:31;-0.40;99.90
42907;DHT22;28552;51.146;6.576;2023-04-03T04:56:32;-0.40;99.90
42907;DHT22;28552;51.146;6.576;2023-04-03T04:59:32;-0.40;99.90
42907;DHT22;28552;51.146;6.576;2023-04-03T05:02:33;-0.40;99.90
42907;DHT22;28552;51.146;6.576;2023-04-03T05:05:33;-0.40;99.90
42907;DHT22;28552;51.146;6.576;2023-04-03T05:08:34;-0.40;99.90
42907;DHT22;28552;51.146;6.576;2023-04-03T05:11:34;-0.30;99.90
42907;DHT22;28552;51.146;6.576;2023-04-03T05:14:35;-0.30;99.90
42907;DHT22;28552;51.146;6.576;2023-04-03T05:17:36;-0.30;99.90
42907;DHT22;28552;51.146;6.576;2023-04-03T05:20:36;-0.30;99.90
42907;DHT22;28552;51.146;6.576;2023-04-03T05:23:37;-0.30;99.90
42907;DHT22;28552;51.146;6.576;2023-04-03T05:26:37;-0.30;99.90
42907;DHT22;28552;51.146;6.576;2023-04-03T05:29:38;-0.30;99.90
42907;DHT22;28552;51.146;6.576;2023-04-03T05:32:39;-0.30;99.90
42907;DHT22;28552;51.146;6.576;2023-04-03T05:35:40;-0.30;99.90
42907;DHT22;28552;51.146;6.576;2023-04-03T05:38:41;-0.30;99.90
42907;DHT22;28552;51.146;6.576;2023-04-03T05:41:41;-0.30;99.90
42907;DHT22;28552;51.146;6.576;2023-04-03T05:44:42;-0.20;99.90
42907;DHT22;28552;51.146;6.576;2023-04-03T05:47:43;-0.20;99.90
42907;DHT22;28552;51.146;6.576;2023-04-03T05:50:43;-0.20;99.90
42907;DHT22;28552;51.146;6.576;2023-04-03T05:53:44;-0.20;99.90
42907;DHT22;28552;51.146;6.576;2023-04-03T05:56:45;-0.20;99.90
42907;DHT22;28552;51.146;6.576;2023-04-03T05:59:45;-0.20;99.90
42907;DHT22;28552;51.146;6.576;2023-04-03T06:02:46;-0.10;99.90
42907;DHT22;28552;51.146;6.576;2023-04-03T06:05:47;-0.10;99.90
42907;DHT22;28552;51.146;6.576;2023-04-03T06:08:47;0.00;99.90
42907;DHT22;28552;51.146;6.576;2023-04-03T06:11:48;0.00;99.90
42907;DHT22;28552;51.146;6.576;2023-04-03T06:14:48;0.10;99.90
42907;DHT22;28552;51.146;6.576;2023-04-03T06:17:49;0.20;99.90
42907;DHT22;28552;51.146;6.576;2023-04-03T06:20:49;0.20;99.90
42907;DHT22;28552;51.146;6.576;2023-04-03T06:23:50;0.30;99.90
42907;DHT22;28552;51.146;6.576;2023-04-03T06:26:51;0.40;99.90
42907;DHT22;28552;51.146;6.576;2023-04-03T06:29:52;0.50;99.90
42907;DHT22;28552;51.146;6.576;2023-04-03T06:32:53;0.50;99.90
42907;DHT22;28552;51.146;6.576;2023-04-03T06:36:03;0.70;99.90
42907;DHT22;28552;51.146;6.576;2023-04-03T06:39:04;0.70;99.90
42907;DHT22;28552;51.146;6.576;2023-04-03T06:42:04;0.90;99.90
42907;DHT22;28552;51.146;6.576;2023-04-03T06:45:05;1.00;99.90
42907;DHT22;28552;51.146;6.576;2023-04-03T06:48:06;1.20;99.90
42907;DHT22;28552;51.146;6.576;2023-04-03T06:51:07;1.40;99.90
42907;DHT22;28552;51.146;6.576;2023-04-03T06:54:08;1.60;99.90
42907;DHT22;28552;51.146;6.576;2023-04-03T06:57:08;1.90;99.90
42907;DHT22;28552;51.146;6.576;2023-04-03T07:00:10;2.20;99.90
42907;DHT22;28552;51.146;6.576;2023-04-03T07:03:11;2.40;99.90
42907;DHT22;28552;51.146;6.576;2023-04-03T07:06:12;2.70;99.90
42907;DHT22;28552;51.146;6.576;2023-04-03T07:09:13;3.00;99.90
42907;DHT22;28552;51.146;6.576;2023-04-03T07:12:14;3.20;99.90
42907;DHT22;28552;51.146;6.576;2023-04-03T07:15:15;3.50;99.90
42907;DHT22;28552;51.146;6.576;2023-04-03T07:18:15;3.70;99.90
42907;DHT22;28552;51.146;6.576;2023-04-03T07:21:17;3.90;99.90
42907;DHT22;28552;51.146;6.576;2023-04-03T07:24:17;4.10;99.90
42907;DHT22;28552;51.146;6.576;2023-04-03T07:27:18;4.20;99.90
42907;DHT22;28552;51.146;6.576;2023-04-03T07:30:18;4.40;99.90
42907;DHT22;28552;51.146;6.576;2023-04-03T07:33:19;4.60;99.90
42907;DHT22;28552;51.146;6.576;2023-04-03T07:36:21;4.80;99.90
42907;DHT22;28552;51.146;6.576;2023-04-03T07:39:22;5.00;99.90
42907;DHT22;28552;51.146;6.576;2023-04-03T07:42:22;5.20;99.90
42907;DHT22;28552;51.146;6.576;2023-04-03T07:45:22;5.40;99.90
42907;DHT22;28552;51.146;6.576;2023-04-03T07:48:24;5.60;99.90
42907;DHT22;28552;51.146;6.576;2023-04-03T07:51:26;5.80;99.90
42907;DHT22;28552;51.146;6.576;2023-04-03T07:54:26;5.90;99.90
42907;DHT22;28552;51.146;6.576;2023-04-03T07:57:27;6.10;99.90
42907;DHT22;28552;51.146;6.576;2023-04-03T08:00:27;6.20;99.90
42907;DHT22;28552;51.146;6.576;2023-04-03T08:03:28;6.30;99.90
42907;DHT22;28552;51.146;6.576;2023-04-03T08:06:30;6.40;99.90
42907;DHT22;28552;51.146;6.576;2023-04-03T08:09:33;6.60;99.90
42907;DHT22;28552;51.146;6.576;2023-04-03T08:12:33;6.70;99.90
42907;DHT22;28552;51.146;6.576;2023-04-03T08:15:34;6.90;99.90
42907;DHT22;28552;51.146;6.576;2023-04-03T08:18:35;7.00;99.90
42907;DHT22;28552;51.146;6.576;2023-04-03T08:21:35;7.20;99.90
42907;DHT22;28552;51.146;6.576;2023-04-03T08:24:36;7.40;99.90
42907;DHT22;28552;51.146;6.576;2023-04-03T08:27:36;7.70;99.90
42907;DHT22;28552;51.146;6.576;2023-04-03T08:30:39;7.90;99.90
42907;DHT22;28552;51.146;6.576;2023-04-03T08:33:40;8.20;99.90
42907;DHT22;28552;51.146;6.576;2023-04-03T08:36:40;8.40;99.90
42907;DHT22;28552;51.146;6.576;2023-04-03T08:39:41;8.60;99.90
42907;DHT22;28552;51.146;6.576;2023-04-03T08:45:45;8.80;99.90
42907;DHT22;28552;51.146;6.576;2023-04-03T08:48:46;8.40;99.90
42907;DHT22;28552;51.146;6.576;2023-04-03T08:51:47;7.80;99.90
42907;DHT22;28552;51.146;6.576;2023-04-03T08:54:52;7.30;99.90
42907;DHT22;28552;51.146;6.576;2023-04-03T08:57:58;6.80;99.90
42907;DHT22;28552;51.146;6.576;2023-04-03T09:01:02;6.50;99.90
42907;DHT22;28552;51.146;6.576;2023-04-03T09:04:09;6.20;99.90
42907;DHT22;28552;51.146;6.576;2023-04-03T09:07:16;6.00;99.90
42907;DHT22;28552;51.146;6.576;2023-04-03T09:10:19;6.00;99.90
42907;DHT22;28552;51.146;6.576;2023-04-03T09:16:40;5.80;99.90
42907;DHT22;28552;51.146;6.576;2023-04-03T09:19:51;5.90;99.90
42907;DHT22;28552;51.146;6.576;2023-04-03T09:22:54;5.90;99.90
42907;DHT22;28552;51.146;6.576;2023-04-03T09:25:58;5.90;99.90
42907;DHT22;28552;51.146;6.576;2023-04-03T09:29:02;5.80;99.90
42907;DHT22;28552;51.146;6.576;2023-04-03T09:35:24;6.00;99.90
42907;DHT22;28552;51.146;6.576;2023-04-03T09:38:25;6.00;99.90
42907;DHT22;28552;51.146;6.576;2023-04-03T09:41:25;6.00;99.90
42907;DHT22;28552;51.146;6.576;2023-04-03T09:44:28;6.10;99.90
42907;DHT22;28552;51.146;6.576;2023-04-03T09:47:32;6.10;99.90
42907;DHT22;28552;51.146;6.576;2023-04-03T09:50:34;6.10;99.90
42907;DHT22;28552;51.146;6.576;2023-04-03T09:53:39;6.20;99.90
42907;DHT22;28552;51.146;6.576;2023-04-03T09:56:41;6.20;99.90
42907;DHT22;28552;51.146;6.576;2023-04-03T09:59:57;6.20;99.90
42907;DHT22;28552;51.146;6.576;2023-04-03T10:02:58;6.30;99.90
42907;DHT22;28552;51.146;6.576;2023-04-03T10:05:59;6.30;99.90
42907;DHT22;28552;51.146;6.576;2023-04-03T10:09:03;6.40;99.90
42907;DHT22;28552;51.146;6.576;2023-04-03T10:12:06;6.50;99.90
42907;DHT22;28552;51.146;6.576;2023-04-03T10:15:11;6.60;99.90
42907;DHT22;28552;51.146;6.576;2023-04-03T10:21:31;6.70;99.90
42907;DHT22;28552;51.146;6.576;2023-04-03T10:31:09;6.80;99.90
42907;DHT22;28552;51.146;6.576;2023-04-03T10:37:30;6.90;99.90
42907;DHT22;28552;51.146;6.576;2023-04-03T10:40:41;7.10;99.90
42907;DHT22;28552;51.146;6.576;2023-04-03T10:46:45;7.30;99.90
42907;DHT22;28552;51.146;6.576;2023-04-03T10:49:54;7.30;99.90
42907;DHT22;28552;51.146;6.576;2023-04-03T10:53:00;7.40;99.90
42907;DHT22;28552;51.146;6.576;2023-04-03T10:56:03;7.40;99.90
42907;DHT22;28552;51.146;6.576;2023-04-03T11:02:25;7.60;99.90
42907;DHT22;28552;51.146;6.576;2023-04-03T11:05:32;7.80;99.90
42907;DHT22;28552;51.146;6.576;2023-04-03T11:11:37;8.00;99.90
42907;DHT22;28552;51.146;6.576;2023-04-03T11:14:39;8.10;99.90
42907;DHT22;28552;51.146;6.576;2023-04-03T11:17:41;8.20;99.90
42907;DHT22;28552;51.146;6.576;2023-04-03T11:20:57;8.30;99.90
42907;DHT22;28552;51.146;6.576;2023-04-03T11:23:59;8.30;99.90
42907;DHT22;28552;51.146;6.576;2023-04-03T11:27:00;8.30;99.90
42907;DHT22;28552;51.146;6.576;2023-04-03T11:30:05;8.30;99.90
42907;DHT22;28552;51.146;6.576;2023-04-03T11:36:28;8.20;99.10
42907;DHT22;28552;51.146;6.576;2023-04-03T11:39:31;8.20;99.60
42907;DHT22;28552;51.146;6.576;2023-04-03T11:42:36;8.40;99.90
42907;DHT22;28552;51.146;6.576;2023-04-03T11:48:53;8.50;98.60
42907;DHT22;28552;51.146;6.576;2023-04-03T11:51:55;8.50;98.90
42907;DHT22;28552;51.146;6.576;2023-04-03T11:54:57;8.50;98.20
42907;DHT22;28552;51.146;6.576;2023-04-03T12:01:01;8.70;98.10
42907;DHT22;28552;51.146;6.576;2023-04-03T12:04:05;8.70;97.20
42907;DHT22;28552;51.146;6.576;2023-04-03T12:07:15;8.70;97.90
42907;DHT22;28552;51.146;6.576;2023-04-03T12:10:18;8.80;97.90
42907;DHT22;28552;51.146;6.576;2023-04-03T12:13:18;8.90;97.60
42907;DHT22;28552;51.146;6.576;2023-04-03T12:16:21;8.90;96.80
42907;DHT22;28552;51.146;6.576;2023-04-03T12:22:41;8.90;95.50
42907;DHT22;28552;51.146;6.576;2023-04-03T12:26:03;8.90;94.70
42907;DHT22;28552;51.146;6.576;2023-04-03T12:29:43;8.90;93.30
42907;DHT22;28552;51.146;6.576;2023-04-03T12:35:35;9.00;94.30
42907;DHT22;28552;51.146;6.576;2023-04-03T12:38:40;9.00;93.80
42907;DHT22;28552;51.146;6.576;2023-04-03T12:44:46;9.10;92.10
42907;DHT22;28552;51.146;6.576;2023-04-03T12:47:52;9.20;92.10
42907;DHT22;28552;51.146;6.576;2023-04-03T12:50:53;9.30;91.30
42907;DHT22;28552;51.146;6.576;2023-04-03T12:53:58;9.30;91.00
42907;DHT22;28552;51.146;6.576;2023-04-03T13:03:32;9.60;90.70
42907;DHT22;28552;51.146;6.576;2023-04-03T13:06:36;9.60;89.40
42907;DHT22;28552;51.146;6.576;2023-04-03T13:09:38;9.50;89.30
42907;DHT22;28552;51.146;6.576;2023-04-03T13:12:46;9.50;88.70
42907;DHT22;28552;51.146;6.576;2023-04-03T13:15:47;9.40;86.90
42907;DHT22;28552;51.146;6.576;2023-04-03T13:18:51;9.30;88.40
42907;DHT22;28552;51.146;6.576;2023-04-03T13:21:54;9.30;88.70
42907;DHT22;28552;51.146;6.576;2023-04-03T13:24:56;9.30;87.70
42907;DHT22;28552;51.146;6.576;2023-04-03T13:27:58;9.30;87.70
42907;DHT22;28552;51.146;6.576;2023-04-03T13:34:04;9.40;89.20
42907;DHT22;28552;51.146;6.576;2023-04-03T13:37:06;9.40;88.30
42907;DHT22;28552;51.146;6.576;2023-04-03T13:43:18;9.60;89.70
42907;DHT22;28552;51.146;6.576;2023-04-03T13:52:23;9.50;87.40
42907;DHT22;28552;51.146;6.576;2023-04-03T13:55:27;9.50;88.00
42907;DHT22;28552;51.146;6.576;2023-04-03T13:58:29;9.40;85.50
42907;DHT22;28552;51.146;6.576;2023-04-03T14:01:37;9.40;86.20
42907;DHT22;28552;51.146;6.576;2023-04-03T14:07:40;9.40;86.30
42907;DHT22;28552;51.146;6.576;2023-04-03T14:10:40;9.40;86.70
42907;DHT22;28552;51.146;6.576;2023-04-03T14:13:42;9.50;85.40
42907;DHT22;28552;51.146;6.576;2023-04-03T14:16:45;9.50;85.50
42907;DHT22;28552;51.146;6.576;2023-04-03T14:19:46;9.50;86.20
42907;DHT22;28552;51.146;6.576;2023-04-03T14:22:47;9.60;85.90
42907;DHT22;28552;51.146;6.576;2023-04-03T14:25:48;9.50;85.90
42907;DHT22;28552;51.146;6.576;2023-04-03T14:28:51;9.50;85.90
42907;DHT22;28552;51.146;6.576;2023-04-03T14:31:52;9.40;84.50
42907;DHT22;28552;51.146;6.576;2023-04-03T14:34:52;9.40;83.90
42907;DHT22;28552;51.146;6.576;2023-04-03T14:37:53;9.40;85.90
42907;DHT22;28552;51.146;6.576;2023-04-03T14:40:54;9.50;87.90
42907;DHT22;28552;51.146;6.576;2023-04-03T14:43:55;9.70;88.30
42907;DHT22;28552;51.146;6.576;2023-04-03T14:46:55;9.70;87.30
42907;DHT22;28552;51.146;6.576;2023-04-03T14:49:57;9.80;88.60
42907;DHT22;28552;51.146;6.576;2023-04-03T14:52:58;9.90;90.00
42907;DHT22;28552;51.146;6.576;2023-04-03T14:55:59;9.90;89.30
42907;DHT22;28552;51.146;6.576;2023-04-03T14:59:00;9.90;88.20
42907;DHT22;28552;51.146;6.576;2023-04-03T15:02:01;9.90;89.80
42907;DHT22;28552;51.146;6.576;2023-04-03T15:05:02;9.90;89.80
42907;DHT22;28552;51.146;6.576;2023-04-03T15:08:04;9.90;86.70
42907;DHT22;28552;51.146;6.576;2023-04-03T15:11:04;9.80;86.60
42907;DHT22;28552;51.146;6.576;2023-04-03T15:14:05;9.70;87.80
42907;DHT22;28552;51.146;6.576;2023-04-03T15:17:06;9.70;87.20
42907;DHT22;28552;51.146;6.576;2023-04-03T15:20:11;9.70;86.60
42907;DHT22;28552;51.146;6.576;2023-04-03T15:23:13;9.70;87.80
42907;DHT22;28552;51.146;6.576;2023-04-03T15:26:14;9.70;86.00
42907;DHT22;28552;51.146;6.576;2023-04-03T15:29:14;9.70;86.20
42907;DHT22;28552;51.146;6.576;2023-04-03T15:32:15;9.80;87.60
42907;DHT22;28552;51.146;6.576;2023-04-03T15:35:15;9.80;87.70
42907;DHT22;28552;51.146;6.576;2023-04-03T15:38:16;9.80;88.40
42907;DHT22;28552;51.146;6.576;2023-04-03T15:41:16;9.80;87.10
42907;DHT22;28552;51.146;6.576;2023-04-03T15:44:17;9.70;86.70
42907;DHT22;28552;51.146;6.576;2023-04-03T15:47:18;9.70;86.80
42907;DHT22;28552;51.146;6.576;2023-04-03T15:50:19;9.70;89.00
42907;DHT22;28552;51.146;6.576;2023-04-03T15:53:19;9.70;87.40
42907;DHT22;28552;51.146;6.576;2023-04-03T15:56:20;9.60;86.20
42907;DHT22;28552;51.146;6.576;2023-04-03T15:59:21;9.50;85.60
42907;DHT22;28552;51.146;6.576;2023-04-03T16:02:22;9.40;85.70
42907;DHT22;28552;51.146;6.576;2023-04-03T16:05:23;9.30;85.30
42907;DHT22;28552;51.146;6.576;2023-04-03T16:08:23;9.30;85.00
42907;DHT22;28552;51.146;6.576;2023-04-03T16:11:25;9.20;85.80
42907;DHT22;28552;51.146;6.576;2023-04-03T16:14:26;9.20;86.80
42907;DHT22;28552;51.146;6.576;2023-04-03T16:17:28;9.20;86.70
42907;DHT22;28552;51.146;6.576;2023-04-03T16:20:28;9.20;87.00
42907;DHT22;28552;51.146;6.576;2023-04-03T16:23:29;9.20;87.10
42907;DHT22;28552;51.146;6.576;2023-04-03T16:26:29;9.10;86.60
42907;DHT22;28552;51.146;6.576;2023-04-03T16:29:30;9.10;86.50
42907;DHT22;28552;51.146;6.576;2023-04-03T16:32:31;9.10;86.30
42907;DHT22;28552;51.146;6.576;2023-04-03T16:35:32;9.10;85.80
42907;DHT22;28552;51.146;6.576;2023-04-03T16:38:32;9.00;85.90
42907;DHT22;28552;51.146;6.576;2023-04-03T16:41:33;9.00;85.80
42907;DHT22;28552;51.146;6.576;2023-04-03T16:44:33;9.00;86.60
42907;DHT22;28552;51.146;6.576;2023-04-03T16:47:34;9.10;87.70
42907;DHT22;28552;51.146;6.576;2023-04-03T16:50:34;9.10;88.30
42907;DHT22;28552;51.146;6.576;2023-04-03T16:53:35;9.10;87.60
42907;DHT22;28552;51.146;6.576;2023-04-03T16:56:36;9.00;86.80
42907;DHT22;28552;51.146;6.576;2023-04-03T16:59:36;9.00;86.80
42907;DHT22;28552;51.146;6.576;2023-04-03T17:02:37;8.90;86.20
42907;DHT22;28552;51.146;6.576;2023-04-03T17:05:37;8.80;86.30
42907;DHT22;28552;51.146;6.576;2023-04-03T17:08:38;8.80;87.20
42907;DHT22;28552;51.146;6.576;2023-04-03T17:11:38;8.70;87.80
42907;DHT22;28552;51.146;6.576;2023-04-03T17:14:39;8.70;87.80
42907;DHT22;28552;51.146;6.576;2023-04-03T17:17:40;8.70;87.10
42907;DHT22;28552;51.146;6.576;2023-04-03T17:20:41;8.70;86.50
42907;DHT22;28552;51.146;6.576;2023-04-03T17:23:42;8.70;86.40
42907;DHT22;28552;51.146;6.576;2023-04-03T17:26:44;8.60;86.40
42907;DHT22;28552;51.146;6.576;2023-04-03T17:29:45;8.40;87.60
42907;DHT22;28552;51.146;6.576;2023-04-03T17:32:45;8.30;88.20
42907;DHT22;28552;51.146;6.576;2023-04-03T17:35:46;8.20;88.00
42907;DHT22;28552;51.146;6.576;2023-04-03T17:38:46;8.10;88.40
42907;DHT22;28552;51.146;6.576;2023-04-03T17:41:48;8.00;88.30
42907;DHT22;28552;51.146;6.576;2023-04-03T17:44:48;7.90;87.90
42907;DHT22;28552;51.146;6.576;2023-04-03T17:47:50;7.80;88.40
42907;DHT22;28552;51.146;6.576;2023-04-03T17:50:51;7.70;88.80
42907;DHT22;28552;51.146;6.576;2023-04-03T17:53:51;7.50;89.50
42907;DHT22;28552;51.146;6.576;2023-04-03T17:56:51;7.30;90.30
42907;DHT22;28552;51.146;6.576;2023-04-03T17:59:52;7.10;90.80
42907;DHT22;28552;51.146;6.576;2023-04-03T18:02:53;7.00;91.20
42907;DHT22;28552;51.146;6.576;2023-04-03T18:05:53;6.80;91.30
42907;DHT22;28552;51.146;6.576;2023-04-03T18:08:56;6.60;91.30
42907;DHT22;28552;51.146;6.576;2023-04-03T18:11:59;6.50;91.30
42907;DHT22;28552;51.146;6.576;2023-04-03T18:15:01;6.40;91.40
42907;DHT22;28552;51.146;6.576;2023-04-03T18:18:02;6.30;91.40
42907;DHT22;28552;51.146;6.576;2023-04-03T18:21:03;6.20;91.40
42907;DHT22;28552;51.146;6.576;2023-04-03T18:24:04;6.20;91.30
42907;DHT22;28552;51.146;6.576;2023-04-03T18:27:09;6.10;91.30
42907;DHT22;28552;51.146;6.576;2023-04-03T18:30:11;5.90;91.80
42907;DHT22;28552;51.146;6.576;2023-04-03T18:33:12;5.80;91.90
42907;DHT22;28552;51.146;6.576;2023-04-03T18:36:13;5.70;92.10
42907;DHT22;28552;51.146;6.576;2023-04-03T18:39:13;5.70;92.10
42907;DHT22;28552;51.146;6.576;2023-04-03T18:42:14;5.70;92.30
42907;DHT22;28552;51.146;6.576;2023-04-03T18:45:16;5.60;92.30
42907;DHT22;28552;51.146;6.576;2023-04-03T18:48:20;5.50;92.40
42907;DHT22;28552;51.146;6.576;2023-04-03T18:51:21;5.50;92.50
42907;DHT22;28552;51.146;6.576;2023-04-03T18:54:21;5.40;92.40
42907;DHT22;28552;51.146;6.576;2023-04-03T18:57:22;5.40;92.50
42907;DHT22;28552;51.146;6.576;2023-04-03T19:00:22;5.30;92.70
42907;DHT22;28552;51.146;6.576;2023-04-03T19:03:23;5.20;93.10
42907;DHT22;28552;51.146;6.576;2023-04-03T19:06:23;5.10;93.40
42907;DHT22;28552;51.146;6.576;2023-04-03T19:09:24;5.10;93.40
42907;DHT22;28552;51.146;6.576;2023-04-03T19:12:25;5.10;93.50
42907;DHT22;28552;51.146;6.576;2023-04-03T19:15:26;5.00;93.70
42907;DHT22;28552;51.146;6.576;2023-04-03T19:18:26;5.00;93.90
42907;DHT22;28552;51.146;6.576;2023-04-03T19:21:27;4.90;93.90
42907;DHT22;28552;51.146;6.576;2023-04-03T19:24:27;4.90;94.10
42907;DHT22;28552;51.146;6.576;2023-04-03T19:27:28;4.80;94.20
42907;DHT22;28552;51.146;6.576;2023-04-03T19:30:28;4.80;94.50
42907;DHT22;28552;51.146;6.576;2023-04-03T19:33:31;4.70;94.80
42907;DHT22;28552;51.146;6.576;2023-04-03T19:36:31;4.60;95.10
42907;DHT22;28552;51.146;6.576;2023-04-03T19:39:32;4.60;95.20
42907;DHT22;28552;51.146;6.576;2023-04-03T19:42:34;4.50;95.40
42907;DHT22;28552;51.146;6.576;2023-04-03T19:45:39;4.50;95.60
42907;DHT22;28552;51.146;6.576;2023-04-03T19:48:39;4.50;95.80
42907;DHT22;28552;51.146;6.576;2023-04-03T19:51:40;4.40;95.70
42907;DHT22;28552;51.146;6.576;2023-04-03T19:54:40;4.40;95.70
42907;DHT22;28552;51.146;6.576;2023-04-03T19:57:41;4.40;95.70
42907;DHT22;28552;51.146;6.576;2023-04-03T20:00:41;4.30;95.70
42907;DHT22;28552;51.146;6.576;2023-04-03T20:03:42;4.20;96.10
42907;DHT22;28552;51.146;6.576;2023-04-03T20:06:42;4.20;96.10
42907;DHT22;28552;51.146;6.576;2023-04-03T20:09:43;4.20;96.20
42907;DHT22;28552;51.146;6.576;2023-04-03T20:12:43;4.10;96.30
42907;DHT22;28552;51.146;6.576;2023-04-03T20:15:44;4.10;96.60
42907;DHT22;28552;51.146;6.576;2023-04-03T20:18:45;4.00;96.70
42907;DHT22;28552;51.146;6.576;2023-04-03T20:21:46;4.00;96.70
42907;DHT22;28552;51.146;6.576;2023-04-03T20:24:47;3.90;96.70
42907;DHT22;28552;51.146;6.576;2023-04-03T20:27:47;3.90;96.60
42907;DHT22;28552;51.146;6.576;2023-04-03T20:30:48;4.00;96.50
42907;DHT22;28552;51.146;6.576;2023-04-03T20:33:50;4.00;96.50
42907;DHT22;28552;51.146;6.576;2023-04-03T20:36:51;3.90;96.70
42907;DHT22;28552;51.146;6.576;2023-04-03T20:39:52;3.80;97.00